sensor_id;sensor_type;location;lat;lon;timestamp;temperature;humidity
22940;DHT22;11636;52.086;5.090;2022-12-16T00:01:46;0.30;99.90
22940;DHT22;11636;52.086;5.090;2022-12-16T00:04:13;0.30;99.90
22940;DHT22;11636;52.086;5.090;2022-12-16T00:06:42;0.40;99.90
22940;DHT22;11636;52.086;5.090;2022-12-16T00:09:17;0.50;99.90
22940;DHT22;11636;52.086;5.090;2022-12-16T00:11:44;0.40;99.90
22940;DHT22;11636;52.086;5.090;2022-12-16T00:14:19;0.30;99.90
22940;DHT22;11636;52.086;5.090;2022-12-16T00:16:59;0.30;99.90
22940;DHT22;11636;52.086;5.090;2022-12-16T00:19:26;0.20;99.90
22940;DHT22;11636;52.086;5.090;2022-12-16T00:22:00;0.10;99.90
22940;DHT22;11636;52.086;5.090;2022-12-16T00:24:27;0.00;99.90
22940;DHT22;11636;52.086;5.090;2022-12-16T00:26:57;0.00;99.90
22940;DHT22;11636;52.086;5.090;2022-12-16T00:29:30;0.00;99.90
22940;DHT22;11636;52.086;5.090;2022-12-16T00:31:56;-0.10;99.90
22940;DHT22;11636;52.086;5.090;2022-12-16T00:34:30;0.00;99.90
22940;DHT22;11636;52.086;5.090;2022-12-16T00:37:10;0.00;99.90
22940;DHT22;11636;52.086;5.090;2022-12-16T00:39:44;0.00;99.90
22940;DHT22;11636;52.086;5.090;2022-12-16T00:42:11;0.10;99.90
22940;DHT22;11636;52.086;5.090;2022-12-16T00:44:37;0.10;99.90
22940;DHT22;11636;52.086;5.090;2022-12-16T00:47:17;0.00;99.90
22940;DHT22;11636;52.086;5.090;2022-12-16T00:49:51;0.10;99.90
22940;DHT22;11636;52.086;5.090;2022-12-16T00:52:25;0.10;99.90
22940;DHT22;11636;52.086;5.090;2022-12-16T00:54:52;0.20;99.90
22940;DHT22;11636;52.086;5.090;2022-12-16T00:57:34;0.30;99.90
22940;DHT22;11636;52.086;5.090;2022-12-16T01:00:09;0.40;99.90
22940;DHT22;11636;52.086;5.090;2022-12-16T01:02:47;0.50;99.90
22940;DHT22;11636;52.086;5.090;2022-12-16T01:05:17;0.50;99.90
22940;DHT22;11636;52.086;5.090;2022-12-16T01:07:53;0.60;99.90
22940;DHT22;11636;52.086;5.090;2022-12-16T01:10:21;0.60;99.90
22940;DHT22;11636;52.086;5.090;2022-12-16T01:12:48;0.70;99.90
22940;DHT22;11636;52.086;5.090;2022-12-16T01:15:22;0.70;99.90
22940;DHT22;11636;52.086;5.090;2022-12-16T01:17:56;0.70;99.90
22940;DHT22;11636;52.086;5.090;2022-12-16T01:20:31;0.70;99.90
22940;DHT22;11636;52.086;5.090;2022-12-16T01:22:58;0.60;99.90
22940;DHT22;11636;52.086;5.090;2022-12-16T01:25:32;0.60;99.90
22940;DHT22;11636;52.086;5.090;2022-12-16T01:27:59;0.50;99.90
22940;DHT22;11636;52.086;5.090;2022-12-16T01:30:26;0.50;99.90
22940;DHT22;11636;52.086;5.090;2022-12-16T01:33:00;0.40;99.90
22940;DHT22;11636;52.086;5.090;2022-12-16T01:35:27;0.50;99.90
22940;DHT22;11636;52.086;5.090;2022-12-16T01:38:20;0.60;99.90
22940;DHT22;11636;52.086;5.090;2022-12-16T01:40:54;0.70;99.90
22940;DHT22;11636;52.086;5.090;2022-12-16T01:43:33;0.80;99.90
22940;DHT22;11636;52.086;5.090;2022-12-16T01:49:00;0.90;99.90
22940;DHT22;11636;52.086;5.090;2022-12-16T01:51:42;0.90;99.90
22940;DHT22;11636;52.086;5.090;2022-12-16T01:54:23;0.90;99.90
22940;DHT22;11636;52.086;5.090;2022-12-16T01:57:01;0.90;99.90
22940;DHT22;11636;52.086;5.090;2022-12-16T01:59:30;0.90;99.90
22940;DHT22;11636;52.086;5.090;2022-12-16T02:02:03;0.90;99.90
22940;DHT22;11636;52.086;5.090;2022-12-16T02:04:31;0.90;99.90
22940;DHT22;11636;52.086;5.090;2022-12-16T02:07:05;0.90;99.90
22940;DHT22;11636;52.086;5.090;2022-12-16T02:09:38;0.90;99.90
22940;DHT22;11636;52.086;5.090;2022-12-16T02:12:18;0.90;99.90
22940;DHT22;11636;52.086;5.090;2022-12-16T02:15:03;1.00;99.90
22940;DHT22;11636;52.086;5.090;2022-12-16T02:32:03;1.20;99.90
22940;DHT22;11636;52.086;5.090;2022-12-16T02:37:42;1.20;99.90
22940;DHT22;11636;52.086;5.090;2022-12-16T02:40:44;1.10;99.90
22940;DHT22;11636;52.086;5.090;2022-12-16T02:46:00;0.90;99.90
22940;DHT22;11636;52.086;5.090;2022-12-16T02:48:28;0.80;99.90
22940;DHT22;11636;52.086;5.090;2022-12-16T02:51:01;0.70;99.90
22940;DHT22;11636;52.086;5.090;2022-12-16T02:53:30;0.70;99.90
22940;DHT22;11636;52.086;5.090;2022-12-16T02:56:14;0.60;99.90
22940;DHT22;11636;52.086;5.090;2022-12-16T03:01:56;0.50;99.90
22940;DHT22;11636;52.086;5.090;2022-12-16T03:04:51;0.40;99.90
22940;DHT22;11636;52.086;5.090;2022-12-16T03:07:32;0.50;99.90
22940;DHT22;11636;52.086;5.090;2022-12-16T03:10:02;0.50;99.90
22940;DHT22;11636;52.086;5.090;2022-12-16T03:12:43;0.60;99.90
22940;DHT22;11636;52.086;5.090;2022-12-16T03:15:20;0.70;99.90
22940;DHT22;11636;52.086;5.090;2022-12-16T03:17:55;0.80;99.90
22940;DHT22;11636;52.086;5.090;2022-12-16T03:20:26;0.80;99.90
22940;DHT22;11636;52.086;5.090;2022-12-16T03:23:13;0.80;99.90
22940;DHT22;11636;52.086;5.090;2022-12-16T03:25:49;0.80;99.90
22940;DHT22;11636;52.086;5.090;2022-12-16T03:31:15;0.90;99.90
22940;DHT22;11636;52.086;5.090;2022-12-16T03:33:49;0.90;99.90
22940;DHT22;11636;52.086;5.090;2022-12-16T03:36:26;1.00;99.90
22940;DHT22;11636;52.086;5.090;2022-12-16T03:38:54;1.00;99.90
22940;DHT22;11636;52.086;5.090;2022-12-16T03:41:29;1.00;99.90
22940;DHT22;11636;52.086;5.090;2022-12-16T03:44:03;1.00;99.90
22940;DHT22;11636;52.086;5.090;2022-12-16T03:46:37;1.00;99.90
22940;DHT22;11636;52.086;5.090;2022-12-16T03:49:04;0.90;99.90
22940;DHT22;11636;52.086;5.090;2022-12-16T03:51:37;0.90;99.90
22940;DHT22;11636;52.086;5.090;2022-12-16T03:54:10;0.90;99.90
22940;DHT22;11636;52.086;5.090;2022-12-16T03:56:43;0.90;99.90
22940;DHT22;11636;52.086;5.090;2022-12-16T03:59:17;0.90;99.90
22940;DHT22;11636;52.086;5.090;2022-12-16T04:01:44;0.80;99.90
22940;DHT22;11636;52.086;5.090;2022-12-16T04:04:12;0.90;99.90
22940;DHT22;11636;52.086;5.090;2022-12-16T04:06:45;0.90;99.90
22940;DHT22;11636;52.086;5.090;2022-12-16T04:09:38;0.90;99.90
22940;DHT22;11636;52.086;5.090;2022-12-16T04:12:19;0.90;99.90
22940;DHT22;11636;52.086;5.090;2022-12-16T04:15:07;0.90;99.90
22940;DHT22;11636;52.086;5.090;2022-12-16T04:17:59;0.90;99.90
22940;DHT22;11636;52.086;5.090;2022-12-16T04:21:07;0.80;99.90
22940;DHT22;11636;52.086;5.090;2022-12-16T04:24:12;0.60;99.90
22940;DHT22;11636;52.086;5.090;2022-12-16T04:26:52;0.60;99.90
22940;DHT22;11636;52.086;5.090;2022-12-16T04:29:43;0.50;99.90
22940;DHT22;11636;52.086;5.090;2022-12-16T04:32:53;0.40;99.90
22940;DHT22;11636;52.086;5.090;2022-12-16T04:35:42;0.30;99.90
22940;DHT22;11636;52.086;5.090;2022-12-16T04:38:34;0.20;99.90
22940;DHT22;11636;52.086;5.090;2022-12-16T04:41:26;0.10;99.90
22940;DHT22;11636;52.086;5.090;2022-12-16T04:44:12;0.00;99.90
22940;DHT22;11636;52.086;5.090;2022-12-16T04:47:04;-0.10;99.90
22940;DHT22;11636;52.086;5.090;2022-12-16T04:49:50;-0.20;99.90
22940;DHT22;11636;52.086;5.090;2022-12-16T04:52:42;-0.20;99.90
22940;DHT22;11636;52.086;5.090;2022-12-16T04:55:28;-0.30;99.90
22940;DHT22;11636;52.086;5.090;2022-12-16T04:58:28;-0.40;99.90
22940;DHT22;11636;52.086;5.090;2022-12-16T05:01:19;-0.40;99.90
22940;DHT22;11636;52.086;5.090;2022-12-16T05:04:05;-0.50;99.90
22940;DHT22;11636;52.086;5.090;2022-12-16T05:07:14;-0.50;99.90
22940;DHT22;11636;52.086;5.090;2022-12-16T05:10:05;-0.60;99.90
22940;DHT22;11636;52.086;5.090;2022-12-16T05:12:57;-0.60;99.90
22940;DHT22;11636;52.086;5.090;2022-12-16T05:15:55;-0.60;99.90
22940;DHT22;11636;52.086;5.090;2022-12-16T05:18:40;-0.70;99.90
22940;DHT22;11636;52.086;5.090;2022-12-16T05:21:32;-0.70;99.90
22940;DHT22;11636;52.086;5.090;2022-12-16T05:24:21;-0.80;99.90
22940;DHT22;11636;52.086;5.090;2022-12-16T05:27:18;-0.80;99.90
22940;DHT22;11636;52.086;5.090;2022-12-16T05:30:11;-0.80;99.90
22940;DHT22;11636;52.086;5.090;2022-12-16T05:33:05;-0.80;99.90
22940;DHT22;11636;52.086;5.090;2022-12-16T05:35:57;-0.80;99.90
22940;DHT22;11636;52.086;5.090;2022-12-16T05:38:42;-0.90;99.90
22940;DHT22;11636;52.086;5.090;2022-12-16T05:41:34;-0.90;99.90
22940;DHT22;11636;52.086;5.090;2022-12-16T05:44:28;-1.00;99.90
22940;DHT22;11636;52.086;5.090;2022-12-16T05:47:28;-1.00;99.90
22940;DHT22;11636;52.086;5.090;2022-12-16T05:50:13;-1.00;99.90
22940;DHT22;11636;52.086;5.090;2022-12-16T05:53:06;-1.00;99.90
22940;DHT22;11636;52.086;5.090;2022-12-16T05:55:51;-1.00;99.90
22940;DHT22;11636;52.086;5.090;2022-12-16T05:58:43;-1.00;99.90
22940;DHT22;11636;52.086;5.090;2022-12-16T06:01:29;-1.10;99.90
22940;DHT22;11636;52.086;5.090;2022-12-16T06:04:21;-1.10;99.90
22940;DHT22;11636;52.086;5.090;2022-12-16T06:07:06;-1.10;99.90
22940;DHT22;11636;52.086;5.090;2022-12-16T06:10:00;-1.10;99.90
22940;DHT22;11636;52.086;5.090;2022-12-16T06:12:46;-1.20;99.90
22940;DHT22;11636;52.086;5.090;2022-12-16T06:15:38;-1.20;99.90
22940;DHT22;11636;52.086;5.090;2022-12-16T06:18:36;-1.20;99.90
22940;DHT22;11636;52.086;5.090;2022-12-16T06:21:22;-1.20;99.90
22940;DHT22;11636;52.086;5.090;2022-12-16T06:24:14;-1.30;99.90
22940;DHT22;11636;52.086;5.090;2022-12-16T06:26:59;-1.30;99.90
22940;DHT22;11636;52.086;5.090;2022-12-16T06:29:51;-1.30;99.90
22940;DHT22;11636;52.086;5.090;2022-12-16T06:32:37;-1.30;99.90
22940;DHT22;11636;52.086;5.090;2022-12-16T06:35:30;-1.30;99.90
22940;DHT22;11636;52.086;5.090;2022-12-16T06:38:22;-1.30;99.90
22940;DHT22;11636;52.086;5.090;2022-12-16T06:41:08;-1.30;99.90
22940;DHT22;11636;52.086;5.090;2022-12-16T06:44:00;-1.40;99.90
22940;DHT22;11636;52.086;5.090;2022-12-16T06:46:45;-1.40;99.90
22940;DHT22;11636;52.086;5.090;2022-12-16T06:49:36;-1.40;99.90
22940;DHT22;11636;52.086;5.090;2022-12-16T06:52:33;-1.40;99.90
22940;DHT22;11636;52.086;5.090;2022-12-16T06:55:25;-1.40;99.90
22940;DHT22;11636;52.086;5.090;2022-12-16T06:58:10;-1.40;99.90
22940;DHT22;11636;52.086;5.090;2022-12-16T07:01:03;-1.40;99.90
22940;DHT22;11636;52.086;5.090;2022-12-16T07:03:56;-1.40;99.90
22940;DHT22;11636;52.086;5.090;2022-12-16T07:06:48;-1.40;99.90
22940;DHT22;11636;52.086;5.090;2022-12-16T07:09:41;-1.50;99.90
22940;DHT22;11636;52.086;5.090;2022-12-16T07:12:42;-1.30;99.90
22940;DHT22;11636;52.086;5.090;2022-12-16T07:15:46;-1.30;99.90
22940;DHT22;11636;52.086;5.090;2022-12-16T07:18:44;-1.30;99.90
22940;DHT22;11636;52.086;5.090;2022-12-16T07:21:37;-1.30;99.90
22940;DHT22;11636;52.086;5.090;2022-12-16T07:24:26;-1.30;99.90
22940;DHT22;11636;52.086;5.090;2022-12-16T07:27:19;-1.40;99.90
22940;DHT22;11636;52.086;5.090;2022-12-16T07:30:08;-1.40;99.90
22940;DHT22;11636;52.086;5.090;2022-12-16T07:33:03;-1.40;99.90
22940;DHT22;11636;52.086;5.090;2022-12-16T07:35:56;-1.40;99.90
22940;DHT22;11636;52.086;5.090;2022-12-16T07:38:48;-1.40;99.90
22940;DHT22;11636;52.086;5.090;2022-12-16T07:41:41;-1.40;99.90
22940;DHT22;11636;52.086;5.090;2022-12-16T07:44:27;-1.40;99.90
22940;DHT22;11636;52.086;5.090;2022-12-16T07:47:20;-1.40;99.90
22940;DHT22;11636;52.086;5.090;2022-12-16T07:50:06;-1.40;99.90
22940;DHT22;11636;52.086;5.090;2022-12-16T07:52:59;-1.40;99.90
22940;DHT22;11636;52.086;5.090;2022-12-16T07:55:45;-1.40;99.90
22940;DHT22;11636;52.086;5.090;2022-12-16T07:58:39;-1.40;99.90
22940;DHT22;11636;52.086;5.090;2022-12-16T08:01:24;-1.40;99.90
22940;DHT22;11636;52.086;5.090;2022-12-16T08:04:17;-1.40;99.90
22940;DHT22;11636;52.086;5.090;2022-12-16T08:07:09;-1.40;99.90
22940;DHT22;11636;52.086;5.090;2022-12-16T08:10:00;-1.40;99.90
22940;DHT22;11636;52.086;5.090;2022-12-16T08:13:03;-1.40;99.90
22940;DHT22;11636;52.086;5.090;2022-12-16T08:15:52;-1.30;99.90
22940;DHT22;11636;52.086;5.090;2022-12-16T08:18:44;-1.30;99.90
22940;DHT22;11636;52.086;5.090;2022-12-16T08:21:37;-1.30;99.90
22940;DHT22;11636;52.086;5.090;2022-12-16T08:24:22;-1.30;99.90
22940;DHT22;11636;52.086;5.090;2022-12-16T08:27:38;-1.30;99.90
22940;DHT22;11636;52.086;5.090;2022-12-16T08:30:23;-1.20;99.90
22940;DHT22;11636;52.086;5.090;2022-12-16T08:33:21;-1.20;99.90
22940;DHT22;11636;52.086;5.090;2022-12-16T08:36:13;-1.20;99.90
22940;DHT22;11636;52.086;5.090;2022-12-16T08:38:58;-1.20;99.90
22940;DHT22;11636;52.086;5.090;2022-12-16T08:41:50;-1.20;99.90
22940;DHT22;11636;52.086;5.090;2022-12-16T08:44:35;-1.20;99.90
22940;DHT22;11636;52.086;5.090;2022-12-16T08:47:28;-1.20;99.90
22940;DHT22;11636;52.086;5.090;2022-12-16T08:50:22;-1.20;99.90
22940;DHT22;11636;52.086;5.090;2022-12-16T08:53:14;-1.20;99.90
22940;DHT22;11636;52.086;5.090;2022-12-16T08:56:06;-1.10;99.90
22940;DHT22;11636;52.086;5.090;2022-12-16T08:58:54;-1.00;99.90
22940;DHT22;11636;52.086;5.090;2022-12-16T09:01:46;-0.90;99.90
22940;DHT22;11636;52.086;5.090;2022-12-16T09:04:31;-0.90;99.90
22940;DHT22;11636;52.086;5.090;2022-12-16T09:07:26;-0.80;99.90
22940;DHT22;11636;52.086;5.090;2022-12-16T09:10:18;-0.80;99.90
22940;DHT22;11636;52.086;5.090;2022-12-16T09:13:11;-0.70;99.90
22940;DHT22;11636;52.086;5.090;2022-12-16T09:16:03;-0.60;99.90
22940;DHT22;11636;52.086;5.090;2022-12-16T09:18:49;-0.50;99.90
22940;DHT22;11636;52.086;5.090;2022-12-16T09:22:01;-0.30;99.90
22940;DHT22;11636;52.086;5.090;2022-12-16T09:24:54;-0.10;99.90
22940;DHT22;11636;52.086;5.090;2022-12-16T09:27:48;0.10;99.90
22940;DHT22;11636;52.086;5.090;2022-12-16T09:30:34;0.20;99.90
22940;DHT22;11636;52.086;5.090;2022-12-16T09:33:26;0.30;99.90
22940;DHT22;11636;52.086;5.090;2022-12-16T09:36:12;0.40;99.90
22940;DHT22;11636;52.086;5.090;2022-12-16T09:39:04;0.50;99.90
22940;DHT22;11636;52.086;5.090;2022-12-16T09:42:23;0.50;99.90
22940;DHT22;11636;52.086;5.090;2022-12-16T09:45:48;0.60;99.90
22940;DHT22;11636;52.086;5.090;2022-12-16T09:48:58;0.60;99.90
22940;DHT22;11636;52.086;5.090;2022-12-16T09:51:51;0.70;99.90
22940;DHT22;11636;52.086;5.090;2022-12-16T09:54:45;0.80;99.90
22940;DHT22;11636;52.086;5.090;2022-12-16T09:57:37;0.90;99.90
22940;DHT22;11636;52.086;5.090;2022-12-16T10:00:25;0.90;99.90
22940;DHT22;11636;52.086;5.090;2022-12-16T10:03:28;1.10;99.90
22940;DHT22;11636;52.086;5.090;2022-12-16T10:06:29;1.20;99.90
22940;DHT22;11636;52.086;5.090;2022-12-16T10:09:37;1.40;99.90
22940;DHT22;11636;52.086;5.090;2022-12-16T10:12:42;1.60;99.90
22940;DHT22;11636;52.086;5.090;2022-12-16T10:16:03;1.70;99.90
22940;DHT22;11636;52.086;5.090;2022-12-16T10:22:04;2.00;99.90
22940;DHT22;11636;52.086;5.090;2022-12-16T10:28:46;2.10;99.90
22940;DHT22;11636;52.086;5.090;2022-12-16T10:31:31;2.20;99.90
22940;DHT22;11636;52.086;5.090;2022-12-16T10:34:23;2.30;99.90
22940;DHT22;11636;52.086;5.090;2022-12-16T10:37:27;2.30;99.90
22940;DHT22;11636;52.086;5.090;2022-12-16T10:40:26;2.40;99.90
22940;DHT22;11636;52.086;5.090;2022-12-16T10:43:17;2.50;99.90
22940;DHT22;11636;52.086;5.090;2022-12-16T10:46:19;2.60;99.90
22940;DHT22;11636;52.086;5.090;2022-12-16T10:49:13;2.70;99.90
22940;DHT22;11636;52.086;5.090;2022-12-16T10:52:11;2.80;99.90
22940;DHT22;11636;52.086;5.090;2022-12-16T10:55:02;2.90;99.90
22940;DHT22;11636;52.086;5.090;2022-12-16T11:01:21;2.90;99.90
22940;DHT22;11636;52.086;5.090;2022-12-16T11:04:29;3.00;99.90
22940;DHT22;11636;52.086;5.090;2022-12-16T11:07:30;2.90;99.90
22940;DHT22;11636;52.086;5.090;2022-12-16T11:13:31;2.90;99.90
22940;DHT22;11636;52.086;5.090;2022-12-16T11:16:25;2.90;99.90
22940;DHT22;11636;52.086;5.090;2022-12-16T11:19:22;3.00;99.90
22940;DHT22;11636;52.086;5.090;2022-12-16T11:22:18;2.90;99.90
22940;DHT22;11636;52.086;5.090;2022-12-16T11:25:18;2.90;99.90
22940;DHT22;11636;52.086;5.090;2022-12-16T11:28:11;2.90;99.90
22940;DHT22;11636;52.086;5.090;2022-12-16T11:31:11;2.90;99.90
22940;DHT22;11636;52.086;5.090;2022-12-16T11:33:59;2.90;99.90
22940;DHT22;11636;52.086;5.090;2022-12-16T11:36:53;2.90;99.90
22940;DHT22;11636;52.086;5.090;2022-12-16T11:39:46;2.90;99.90
22940;DHT22;11636;52.086;5.090;2022-12-16T11:42:38;2.90;99.90
22940;DHT22;11636;52.086;5.090;2022-12-16T11:45:32;2.80;99.90
22940;DHT22;11636;52.086;5.090;2022-12-16T11:48:43;2.80;99.90
22940;DHT22;11636;52.086;5.090;2022-12-16T11:51:33;2.70;99.90
22940;DHT22;11636;52.086;5.090;2022-12-16T11:54:56;2.70;99.90
22940;DHT22;11636;52.086;5.090;2022-12-16T11:58:17;2.70;99.90
22940;DHT22;11636;52.086;5.090;2022-12-16T12:01:15;2.70;99.90
22940;DHT22;11636;52.086;5.090;2022-12-16T12:04:11;2.70;99.90
22940;DHT22;11636;52.086;5.090;2022-12-16T12:13:41;2.70;99.90
22940;DHT22;11636;52.086;5.090;2022-12-16T12:19:49;2.70;99.90
22940;DHT22;11636;52.086;5.090;2022-12-16T12:22:42;2.70;99.90
22940;DHT22;11636;52.086;5.090;2022-12-16T12:29:18;2.70;99.90
22940;DHT22;11636;52.086;5.090;2022-12-16T12:32:34;2.70;99.90
22940;DHT22;11636;52.086;5.090;2022-12-16T12:48:46;2.90;99.90
22940;DHT22;11636;52.086;5.090;2022-12-16T12:51:44;2.90;99.90
22940;DHT22;11636;52.086;5.090;2022-12-16T12:54:52;2.90;99.90
22940;DHT22;11636;52.086;5.090;2022-12-16T12:57:41;2.90;99.90
22940;DHT22;11636;52.086;5.090;2022-12-16T13:00:38;2.90;99.90
22940;DHT22;11636;52.086;5.090;2022-12-16T13:03:44;2.90;99.90
22940;DHT22;11636;52.086;5.090;2022-12-16T13:06:38;2.80;99.90
22940;DHT22;11636;52.086;5.090;2022-12-16T13:09:37;2.80;99.90
22940;DHT22;11636;52.086;5.090;2022-12-16T13:12:31;2.80;99.90
22940;DHT22;11636;52.086;5.090;2022-12-16T13:18:20;2.70;99.90
22940;DHT22;11636;52.086;5.090;2022-12-16T13:24:58;2.80;99.90
22940;DHT22;11636;52.086;5.090;2022-12-16T13:27:55;2.80;99.90
22940;DHT22;11636;52.086;5.090;2022-12-16T13:31:01;2.80;99.90
22940;DHT22;11636;52.086;5.090;2022-12-16T13:34:01;2.80;99.90
22940;DHT22;11636;52.086;5.090;2022-12-16T13:37:24;2.90;99.90
22940;DHT22;11636;52.086;5.090;2022-12-16T13:40:21;2.90;99.90
22940;DHT22;11636;52.086;5.090;2022-12-16T13:43:41;2.80;99.90
22940;DHT22;11636;52.086;5.090;2022-12-16T13:49:46;2.70;99.90
22940;DHT22;11636;52.086;5.090;2022-12-16T13:52:51;2.60;99.90
22940;DHT22;11636;52.086;5.090;2022-12-16T13:56:04;2.60;99.90
22940;DHT22;11636;52.086;5.090;2022-12-16T13:59:02;2.60;99.90
22940;DHT22;11636;52.086;5.090;2022-12-16T14:03:02;2.60;99.90
22940;DHT22;11636;52.086;5.090;2022-12-16T14:05:26;2.50;99.90
22940;DHT22;11636;52.086;5.090;2022-12-16T14:08:22;2.50;99.90
22940;DHT22;11636;52.086;5.090;2022-12-16T14:11:22;2.40;99.90
22940;DHT22;11636;52.086;5.090;2022-12-16T14:14:45;2.40;99.90
22940;DHT22;11636;52.086;5.090;2022-12-16T14:17:36;2.40;99.90
22940;DHT22;11636;52.086;5.090;2022-12-16T14:20:33;2.40;99.90
22940;DHT22;11636;52.086;5.090;2022-12-16T14:24:01;2.40;99.90
22940;DHT22;11636;52.086;5.090;2022-12-16T14:27:10;2.40;99.90
22940;DHT22;11636;52.086;5.090;2022-12-16T14:30:28;2.30;99.90
22940;DHT22;11636;52.086;5.090;2022-12-16T14:36:38;2.20;99.90
22940;DHT22;11636;52.086;5.090;2022-12-16T14:39:36;2.20;99.90
22940;DHT22;11636;52.086;5.090;2022-12-16T14:42:30;2.10;99.90
22940;DHT22;11636;52.086;5.090;2022-12-16T14:45:47;2.00;99.90
22940;DHT22;11636;52.086;5.090;2022-12-16T14:48:35;2.00;99.90
22940;DHT22;11636;52.086;5.090;2022-12-16T14:51:36;1.90;99.90
22940;DHT22;11636;52.086;5.090;2022-12-16T14:57:28;1.80;99.90
22940;DHT22;11636;52.086;5.090;2022-12-16T15:00:22;1.80;99.90
22940;DHT22;11636;52.086;5.090;2022-12-16T15:06:28;1.80;99.90
22940;DHT22;11636;52.086;5.090;2022-12-16T15:09:23;1.70;99.90
22940;DHT22;11636;52.086;5.090;2022-12-16T15:12:15;1.70;99.90
22940;DHT22;11636;52.086;5.090;2022-12-16T15:15:13;1.70;99.90
22940;DHT22;11636;52.086;5.090;2022-12-16T15:18:18;1.60;99.90
22940;DHT22;11636;52.086;5.090;2022-12-16T15:21:11;1.50;99.90
22940;DHT22;11636;52.086;5.090;2022-12-16T15:24:08;1.40;99.90
22940;DHT22;11636;52.086;5.090;2022-12-16T15:30:38;1.10;99.90
22940;DHT22;11636;52.086;5.090;2022-12-16T15:33:29;1.10;99.90
22940;DHT22;11636;52.086;5.090;2022-12-16T15:39:44;1.00;99.90
22940;DHT22;11636;52.086;5.090;2022-12-16T15:42:37;1.00;99.90
22940;DHT22;11636;52.086;5.090;2022-12-16T15:45:29;1.00;99.90
22940;DHT22;11636;52.086;5.090;2022-12-16T15:48:32;0.90;99.90
22940;DHT22;11636;52.086;5.090;2022-12-16T15:51:42;0.90;99.90
22940;DHT22;11636;52.086;5.090;2022-12-16T15:54:29;0.80;99.90
22940;DHT22;11636;52.086;5.090;2022-12-16T15:57:31;0.80;99.90
22940;DHT22;11636;52.086;5.090;2022-12-16T16:00:25;0.70;99.90
22940;DHT22;11636;52.086;5.090;2022-12-16T16:03:24;0.60;99.90
22940;DHT22;11636;52.086;5.090;2022-12-16T16:06:24;0.50;99.90
22940;DHT22;11636;52.086;5.090;2022-12-16T16:09:29;0.40;99.90
22940;DHT22;11636;52.086;5.090;2022-12-16T16:12:17;0.40;99.90
22940;DHT22;11636;52.086;5.090;2022-12-16T16:15:26;0.30;99.90
22940;DHT22;11636;52.086;5.090;2022-12-16T16:18:19;0.30;99.90
22940;DHT22;11636;52.086;5.090;2022-12-16T16:21:04;0.20;99.90
22940;DHT22;11636;52.086;5.090;2022-12-16T16:24:00;0.20;99.90
22940;DHT22;11636;52.086;5.090;2022-12-16T16:26:46;0.20;99.90
22940;DHT22;11636;52.086;5.090;2022-12-16T16:29:41;0.20;99.90
22940;DHT22;11636;52.086;5.090;2022-12-16T16:32:29;0.20;99.90
22940;DHT22;11636;52.086;5.090;2022-12-16T16:35:23;0.20;99.90
22940;DHT22;11636;52.086;5.090;2022-12-16T16:38:12;0.10;99.90
22940;DHT22;11636;52.086;5.090;2022-12-16T16:41:06;0.10;99.90
22940;DHT22;11636;52.086;5.090;2022-12-16T16:43:53;0.00;99.90
22940;DHT22;11636;52.086;5.090;2022-12-16T16:46:45;-0.10;99.90
22940;DHT22;11636;52.086;5.090;2022-12-16T16:49:44;-0.10;99.90
22940;DHT22;11636;52.086;5.090;2022-12-16T16:52:41;-0.10;99.90
22940;DHT22;11636;52.086;5.090;2022-12-16T16:55:27;-0.20;99.90
22940;DHT22;11636;52.086;5.090;2022-12-16T16:58:25;-0.20;99.90
22940;DHT22;11636;52.086;5.090;2022-12-16T17:01:18;-0.30;99.90
22940;DHT22;11636;52.086;5.090;2022-12-16T17:04:15;-0.30;99.90
22940;DHT22;11636;52.086;5.090;2022-12-16T17:07:17;-0.30;99.90
22940;DHT22;11636;52.086;5.090;2022-12-16T17:10:03;-0.30;99.90
22940;DHT22;11636;52.086;5.090;2022-12-16T17:12:59;-0.40;99.90
22940;DHT22;11636;52.086;5.090;2022-12-16T17:15:51;-0.40;99.90
22940;DHT22;11636;52.086;5.090;2022-12-16T17:18:37;-0.40;99.90
22940;DHT22;11636;52.086;5.090;2022-12-16T17:21:29;-0.40;99.90
22940;DHT22;11636;52.086;5.090;2022-12-16T17:24:18;-0.50;99.90
22940;DHT22;11636;52.086;5.090;2022-12-16T17:27:22;-0.50;99.90
22940;DHT22;11636;52.086;5.090;2022-12-16T17:30:17;-0.50;99.90
22940;DHT22;11636;52.086;5.090;2022-12-16T17:33:16;-0.50;99.90
22940;DHT22;11636;52.086;5.090;2022-12-16T17:36:11;-0.50;99.90
22940;DHT22;11636;52.086;5.090;2022-12-16T17:39:04;-0.60;99.90
22940;DHT22;11636;52.086;5.090;2022-12-16T17:41:59;-0.60;99.90
22940;DHT22;11636;52.086;5.090;2022-12-16T17:44:44;-0.60;99.90
22940;DHT22;11636;52.086;5.090;2022-12-16T17:47:42;-0.60;99.90
22940;DHT22;11636;52.086;5.090;2022-12-16T17:50:27;-0.60;99.90
22940;DHT22;11636;52.086;5.090;2022-12-16T17:53:19;-0.60;99.90
22940;DHT22;11636;52.086;5.090;2022-12-16T17:56:11;-0.70;99.90
22940;DHT22;11636;52.086;5.090;2022-12-16T17:58:56;-0.70;99.90
22940;DHT22;11636;52.086;5.090;2022-12-16T18:01:49;-0.70;99.90
22940;DHT22;11636;52.086;5.090;2022-12-16T18:04:38;-0.70;99.90
22940;DHT22;11636;52.086;5.090;2022-12-16T18:07:30;-0.70;99.90
22940;DHT22;11636;52.086;5.090;2022-12-16T18:10:22;-0.80;99.90
22940;DHT22;11636;52.086;5.090;2022-12-16T18:13:07;-0.80;99.90
22940;DHT22;11636;52.086;5.090;2022-12-16T18:16:00;-0.80;99.90
22940;DHT22;11636;52.086;5.090;2022-12-16T18:18:49;-0.80;99.90
22940;DHT22;11636;52.086;5.090;2022-12-16T18:21:42;-0.80;99.90
22940;DHT22;11636;52.086;5.090;2022-12-16T18:24:27;-0.80;99.90
22940;DHT22;11636;52.086;5.090;2022-12-16T18:27:21;-0.80;99.90
22940;DHT22;11636;52.086;5.090;2022-12-16T18:30:07;-0.80;99.90
22940;DHT22;11636;52.086;5.090;2022-12-16T18:33:00;-0.80;99.90
22940;DHT22;11636;52.086;5.090;2022-12-16T18:35:45;-0.90;99.90
22940;DHT22;11636;52.086;5.090;2022-12-16T18:38:38;-0.90;99.90
22940;DHT22;11636;52.086;5.090;2022-12-16T18:41:23;-0.90;99.90
22940;DHT22;11636;52.086;5.090;2022-12-16T18:44:15;-0.90;99.90
22940;DHT22;11636;52.086;5.090;2022-12-16T18:47:00;-1.00;99.90
22940;DHT22;11636;52.086;5.090;2022-12-16T18:49:57;-1.00;99.90
22940;DHT22;11636;52.086;5.090;2022-12-16T18:52:49;-1.00;99.90
22940;DHT22;11636;52.086;5.090;2022-12-16T18:55:42;-1.00;99.90
22940;DHT22;11636;52.086;5.090;2022-12-16T18:58:27;-1.00;99.90
22940;DHT22;11636;52.086;5.090;2022-12-16T19:01:20;-1.00;99.90
22940;DHT22;11636;52.086;5.090;2022-12-16T19:04:05;-1.00;99.90
22940;DHT22;11636;52.086;5.090;2022-12-16T19:06:57;-1.00;99.90
22940;DHT22;11636;52.086;5.090;2022-12-16T19:09:49;-1.10;99.90
22940;DHT22;11636;52.086;5.090;2022-12-16T19:12:41;-1.10;99.90
22940;DHT22;11636;52.086;5.090;2022-12-16T19:15:34;-1.10;99.90
22940;DHT22;11636;52.086;5.090;2022-12-16T19:18:21;-1.10;99.90
22940;DHT22;11636;52.086;5.090;2022-12-16T19:21:13;-1.20;99.90
22940;DHT22;11636;52.086;5.090;2022-12-16T19:24:16;-1.10;99.90
22940;DHT22;11636;52.086;5.090;2022-12-16T19:27:12;-1.20;99.90
22940;DHT22;11636;52.086;5.090;2022-12-16T19:29:58;-1.20;99.90
22940;DHT22;11636;52.086;5.090;2022-12-16T19:32:50;-1.20;99.90
22940;DHT22;11636;52.086;5.090;2022-12-16T19:35:36;-1.20;99.90
22940;DHT22;11636;52.086;5.090;2022-12-16T19:38:32;-1.20;99.90
22940;DHT22;11636;52.086;5.090;2022-12-16T19:41:17;-1.30;99.90